TimeAKST,TemperatureF,Dew PointF,Humidity,Sea Level PressureIn,VisibilityMPH,Wind Direction,Wind SpeedMPH,Gust SpeedMPH,PrecipitationIn,Events,Conditions,WindDirDegrees,DateUTC
12:16 AM,-4.0,-11.2,71,30.23,10.0,Calm,Calm,-,N/A,,Clear,0,2012-11-26 09:16:00
12:36 AM,-2.2,-2.2,100,30.23,10.0,East,5.8,-,N/A,,Clear,80,2012-11-26 09:36:00
12:56 AM,-0.4,-2.2,92,30.23,10.0,East,5.8,-,N/A,,Clear,80,2012-11-26 09:56:00
1:16 AM,1.4,-2.2,85,30.24,10.0,East,4.6,-,N/A,,Clear,80,2012-11-26 10:16:00
1:36 AM,1.4,-2.2,85,30.25,10.0,ENE,4.6,-,N/A,,Clear,70,2012-11-26 10:36:00
1:56 AM,-0.4,-13.0,55,30.25,10.0,ENE,3.5,-,N/A,,Clear,70,2012-11-26 10:56:00
2:16 AM,-0.4,-2.2,92,30.25,10.0,East,4.6,-,N/A,,Clear,80,2012-11-26 11:16:00
2:36 AM,-2.2,-5.8,85,30.25,10.0,East,4.6,-,N/A,,Clear,80,2012-11-26 11:36:00
2:56 AM,-0.4,-5.8,78,30.25,10.0,ENE,5.8,-,N/A,,Clear,70,2012-11-26 11:56:00
3:16 AM,-0.4,-4.0,85,30.25,10.0,East,3.5,-,N/A,,Clear,80,2012-11-26 12:16:00
3:36 AM,-2.2,-7.6,78,30.26,10.0,ENE,4.6,-,N/A,,Clear,70,2012-11-26 12:36:00
3:56 AM,-2.2,-5.8,85,30.26,10.0,ENE,3.5,-,N/A,,Clear,70,2012-11-26 12:56:00
4:16 AM,-5.8,-11.2,77,30.26,10.0,ENE,3.5,-,N/A,,Clear,60,2012-11-26 13:16:00
4:36 AM,-5.8,-7.6,92,30.26,10.0,ENE,3.5,-,N/A,,Clear,70,2012-11-26 13:36:00
4:56 AM,-2.2,-5.8,85,30.27,10.0,East,4.6,-,N/A,,Clear,80,2012-11-26 13:56:00
5:16 AM,-2.2,-7.6,78,30.27,10.0,ENE,3.5,-,N/A,,Clear,60,2012-11-26 14:16:00
5:36 AM,-5.8,-9.4,84,30.27,10.0,ENE,3.5,-,N/A,,Scattered Clouds,70,2012-11-26 14:36:00
5:56 AM,-4.0,-5.8,92,30.27,10.0,East,4.6,-,N/A,,Partly Cloudy,80,2012-11-26 14:56:00
6:16 AM,-4.0,-9.4,78,30.27,10.0,ENE,4.6,-,N/A,,Partly Cloudy,70,2012-11-26 15:16:00
6:36 AM,-4.0,-7.6,85,30.27,10.0,East,5.8,-,N/A,,Partly Cloudy,90,2012-11-26 15:36:00
6:56 AM,-4.0,-7.6,85,30.28,10.0,East,3.5,-,N/A,,Partly Cloudy,90,2012-11-26 15:56:00
7:16 AM,-4.0,-7.6,85,30.28,10.0,East,3.5,-,N/A,,Clear,100,2012-11-26 16:16:00
7:36 AM,-5.8,-11.2,77,30.28,10.0,East,5.8,-,N/A,,Clear,100,2012-11-26 16:36:00
7:56 AM,-2.2,-5.8,85,30.29,10.0,East,4.6,-,N/A,,Clear,90,2012-11-26 16:56:00
8:16 AM,-2.2,-5.8,85,30.29,10.0,East,3.5,-,N/A,,Clear,90,2012-11-26 17:16:00
8:36 AM,-4.0,-7.6,85,30.29,10.0,East,3.5,-,N/A,,Clear,100,2012-11-26 17:36:00
8:56 AM,-5.8,-7.6,92,30.29,10.0,Calm,Calm,-,N/A,,Clear,0,2012-11-26 17:56:00
9:16 AM,-4.0,-5.8,92,30.29,10.0,East,3.5,-,N/A,,Clear,80,2012-11-26 18:16:00
9:36 AM,-5.8,-9.4,84,30.29,10.0,East,4.6,-,N/A,,Clear,100,2012-11-26 18:36:00
9:56 AM,-4.0,-5.8,92,30.30,10.0,East,4.6,-,N/A,,Clear,80,2012-11-26 18:56:00
10:16 AM,-4.0,-9.4,78,30.30,10.0,East,4.6,-,N/A,,Clear,90,2012-11-26 19:16:00
10:36 AM,-2.2,-5.8,85,30.31,10.0,ENE,3.5,-,N/A,,Clear,70,2012-11-26 19:36:00
10:56 AM,-2.2,-5.8,85,30.31,10.0,Calm,Calm,-,N/A,,Clear,0,2012-11-26 19:56:00
11:16 AM,-0.4,-2.2,92,30.31,10.0,East,3.5,-,N/A,,Clear,90,2012-11-26 20:16:00
11:36 AM,-0.4,-2.2,92,30.31,10.0,Calm,Calm,-,N/A,,Clear,0,2012-11-26 20:36:00
11:56 AM,-0.4,-4.0,85,30.31,10.0,Calm,Calm,-,N/A,,Clear,0,2012-11-26 20:56:00
12:16 PM,-0.4,-0.4,100,30.30,10.0,ESE,3.5,-,N/A,,Clear,110,2012-11-26 21:16:00
12:36 PM,1.4,-0.4,92,30.30,10.0,East,3.5,-,N/A,,Clear,80,2012-11-26 21:36:00
12:56 PM,1.4,-0.4,92,30.30,10.0,Calm,Calm,-,N/A,,Clear,0,2012-11-26 21:56:00
1:16 PM,3.2,1.4,92,30.30,10.0,East,3.5,-,N/A,,Scattered Clouds,80,2012-11-26 22:16:00
1:36 PM,6.8,5.0,92,30.29,10.0,East,4.6,-,N/A,,Partly Cloudy,90,2012-11-26 22:36:00
1:56 PM,6.8,3.2,85,30.29,10.0,East,5.8,-,N/A,,Clear,90,2012-11-26 22:56:00
2:16 PM,8.6,5.0,85,30.29,10.0,ENE,3.5,-,N/A,,Clear,70,2012-11-26 23:16:00
2:36 PM,6.8,3.2,85,30.29,10.0,Calm,Calm,-,N/A,,Clear,0,2012-11-26 23:36:00
2:56 PM,8.6,6.8,92,30.28,10.0,East,4.6,-,N/A,,Clear,100,2012-11-26 23:56:00
3:16 PM,8.6,5.0,85,30.28,10.0,East,4.6,-,N/A,,Clear,90,2012-11-27 00:16:00
3:36 PM,8.6,5.0,85,30.28,10.0,East,4.6,-,N/A,,Clear,90,2012-11-27 00:36:00
3:56 PM,6.8,1.4,79,30.28,10.0,East,4.6,-,N/A,,Clear,90,2012-11-27 00:56:00
4:16 PM,8.6,3.2,79,30.27,10.0,East,4.6,-,N/A,,Clear,100,2012-11-27 01:16:00
4:36 PM,5.0,-0.4,78,30.26,10.0,East,4.6,-,N/A,,Clear,100,2012-11-27 01:36:00
4:56 PM,6.8,3.2,85,30.26,10.0,East,3.5,-,N/A,,Clear,80,2012-11-27 01:56:00
5:16 PM,5.0,3.2,92,30.26,10.0,Calm,Calm,-,N/A,,Clear,0,2012-11-27 02:16:00
5:36 PM,1.4,-5.8,72,30.26,10.0,Calm,Calm,-,N/A,,Clear,0,2012-11-27 02:36:00
5:56 PM,1.4,-0.4,92,30.26,10.0,Calm,Calm,-,N/A,,Clear,0,2012-11-27 02:56:00
6:16 PM,1.4,-0.4,92,30.26,10.0,Calm,Calm,-,N/A,,Clear,0,2012-11-27 03:16:00
6:36 PM,1.4,-4.0,78,30.25,10.0,East,3.5,-,N/A,,Clear,90,2012-11-27 03:36:00
6:56 PM,-0.4,-4.0,85,30.25,10.0,East,3.5,-,N/A,,Clear,90,2012-11-27 03:56:00
7:16 PM,1.4,-0.4,92,30.25,10.0,East,4.6,-,N/A,,Clear,90,2012-11-27 04:16:00
7:36 PM,3.2,1.4,92,30.24,10.0,East,4.6,-,N/A,,Clear,80,2012-11-27 04:36:00
7:56 PM,1.4,-2.2,85,30.24,10.0,East,5.8,-,N/A,,Clear,100,2012-11-27 04:56:00
8:16 PM,1.4,-0.4,92,30.23,10.0,East,4.6,-,N/A,,Clear,90,2012-11-27 05:16:00
8:36 PM,1.4,-0.4,92,30.23,10.0,East,4.6,-,N/A,,Clear,80,2012-11-27 05:36:00
8:56 PM,1.4,-0.4,92,30.23,10.0,East,3.5,-,N/A,,Clear,80,2012-11-27 05:56:00
9:16 PM,-0.4,-2.2,92,30.23,10.0,East,4.6,-,N/A,,Clear,100,2012-11-27 06:16:00
9:36 PM,-0.4,-5.8,78,30.22,10.0,East,4.6,-,N/A,,Clear,80,2012-11-27 06:36:00
9:56 PM,-0.4,-2.2,92,30.21,10.0,East,4.6,-,N/A,,Clear,90,2012-11-27 06:56:00
10:16 PM,-2.2,-5.8,85,30.21,10.0,East,4.6,-,N/A,,Clear,90,2012-11-27 07:16:00
10:36 PM,-0.4,-4.0,85,30.21,10.0,East,4.6,-,N/A,,Clear,80,2012-11-27 07:36:00
10:56 PM,-0.4,-5.8,78,30.20,10.0,East,3.5,-,N/A,,Scattered Clouds,80,2012-11-27 07:56:00
11:16 PM,-0.4,-4.0,85,30.21,10.0,Calm,Calm,-,N/A,,Scattered Clouds,0,2012-11-27 08:16:00
11:36 PM,-0.4,-5.8,78,30.20,10.0,East,3.5,-,N/A,,Scattered Clouds,80,2012-11-27 08:36:00
11:56 PM,-2.2,-7.6,78,30.19,10.0,Calm,Calm,-,N/A,,Clear,0,2012-11-27 08:56:00